createdAt,value
2023-07-11T00:02:55.206Z,1004.00
2023-07-11T00:08:14.143Z,1004.00
2023-07-11T00:13:06.466Z,1004.00
2023-07-11T00:18:06.545Z,1004.00
2023-07-11T00:23:06.365Z,1004.00
2023-07-11T00:28:06.286Z,1004.00
2023-07-11T00:33:06.279Z,1004.00
2023-07-11T00:38:06.200Z,1004.00
2023-07-11T00:43:06.177Z,1004.00
2023-07-11T00:48:06.081Z,1004.00
2023-07-11T00:53:05.927Z,1004.00
2023-07-11T00:58:05.885Z,1004.00
2023-07-11T01:03:08.022Z,1004.00
2023-07-11T01:08:05.791Z,1004.00
2023-07-11T01:13:05.654Z,1004.00
2023-07-11T01:18:05.679Z,1004.00
2023-07-11T01:23:05.576Z,1004.00
2023-07-11T01:28:05.470Z,1004.00
2023-07-11T01:33:05.497Z,1004.00
2023-07-11T01:38:05.353Z,1004.00
2023-07-11T01:43:05.261Z,1004.00
2023-07-11T01:48:05.248Z,1004.00
2023-07-11T01:53:05.148Z,1004.00
2023-07-11T01:58:05.054Z,1004.00
2023-07-11T02:03:05.146Z,1004.00
2023-07-11T02:08:04.937Z,1004.00
2023-07-11T02:13:04.847Z,1003.00
2023-07-11T02:18:04.830Z,1003.00
2023-07-11T02:23:04.779Z,1003.00
2023-07-11T02:28:04.669Z,1003.00
2023-07-11T02:33:04.633Z,1003.00
2023-07-11T02:38:04.531Z,1003.00
2023-07-11T02:43:04.466Z,1003.00
2023-07-11T02:48:04.469Z,1003.00
2023-07-11T02:53:04.324Z,1003.00
2023-07-11T02:58:04.264Z,1003.00
2023-07-11T03:03:04.220Z,1003.00
2023-07-11T03:08:04.135Z,1003.00
2023-07-11T03:13:04.051Z,1003.00
2023-07-11T03:18:04.013Z,1003.00
2023-07-11T03:23:03.968Z,1003.00
2023-07-11T03:28:03.970Z,1003.00
2023-07-11T03:33:03.951Z,1003.00
2023-07-11T03:38:03.817Z,1003.00
2023-07-11T03:43:03.749Z,1003.00
2023-07-11T03:48:03.628Z,1003.00
2023-07-11T03:53:03.516Z,1003.00
2023-07-11T03:58:03.429Z,1003.00
2023-07-11T04:03:04.235Z,1003.00
2023-07-11T04:08:03.328Z,1003.00
2023-07-11T04:13:03.237Z,1003.00
2023-07-11T04:18:17.873Z,1003.00
2023-07-11T04:23:10.254Z,1003.00
2023-07-11T04:28:10.253Z,1003.00
2023-07-11T04:33:10.169Z,1003.00
2023-07-11T04:38:10.059Z,1003.00
2023-07-11T04:43:09.940Z,1003.00
2023-07-11T04:48:09.921Z,1003.00
2023-07-11T04:53:09.852Z,1003.00
2023-07-11T04:58:09.796Z,1003.00
2023-07-11T05:03:09.781Z,1003.00
2023-07-11T05:08:09.661Z,1003.00
2023-07-11T05:13:09.585Z,1003.00
2023-07-11T05:18:09.509Z,1003.00
2023-07-11T05:23:09.428Z,1003.00
2023-07-11T05:28:09.371Z,1003.00
2023-07-11T05:33:09.286Z,1003.00
2023-07-11T05:38:09.248Z,1002.00
2023-07-11T05:43:09.130Z,1002.00
2023-07-11T05:48:09.114Z,1002.00
2023-07-11T05:53:09.017Z,1002.00
2023-07-11T05:58:08.965Z,1002.00
2023-07-11T06:03:08.926Z,1002.00
2023-07-11T06:08:08.843Z,1002.00
2023-07-11T06:13:08.725Z,1002.00
2023-07-11T06:18:08.763Z,1002.00
2023-07-11T06:23:08.631Z,1002.00
2023-07-11T06:28:08.549Z,1002.00
2023-07-11T06:33:08.547Z,1002.00
2023-07-11T06:38:08.422Z,1002.00
2023-07-11T06:43:08.346Z,1002.00
2023-07-11T06:48:08.324Z,1002.00
2023-07-11T06:53:08.192Z,1002.00
2023-07-11T06:58:08.175Z,1002.00
2023-07-11T07:03:08.155Z,1002.00
2023-07-11T07:08:14.684Z,1002.00
2023-07-11T07:13:09.006Z,1001.00
2023-07-11T07:18:07.986Z,1001.00
2023-07-11T07:23:07.825Z,1001.00
2023-07-11T07:28:07.791Z,1001.00
2023-07-11T07:33:07.723Z,1001.00
2023-07-11T07:38:07.668Z,1001.00
2023-07-11T07:43:07.616Z,1001.00
2023-07-11T07:48:07.579Z,1001.00
2023-07-11T07:53:07.494Z,1001.00
2023-07-11T07:58:07.432Z,1001.00
2023-07-11T08:03:07.434Z,1001.00
2023-07-11T08:08:07.332Z,1001.00
2023-07-11T08:13:07.265Z,1001.00
2023-07-11T08:18:07.243Z,1001.00
2023-07-11T08:23:07.086Z,1001.00
2023-07-11T08:28:07.056Z,1000.00
2023-07-11T08:33:07.023Z,1000.00
2023-07-11T08:38:06.921Z,1000.00
2023-07-11T08:43:06.858Z,1000.00
2023-07-11T08:48:06.827Z,1000.00
2023-07-11T08:53:06.718Z,1000.00
2023-07-11T08:58:06.668Z,1000.00
2023-07-11T09:03:06.670Z,1000.00
2023-07-11T09:08:06.586Z,1000.00
2023-07-11T09:13:15.133Z,1000.00
2023-07-11T09:18:07.481Z,1000.00
2023-07-11T09:23:06.397Z,1000.00
2023-07-11T09:28:06.312Z,1000.00
2023-07-11T09:33:06.319Z,1000.00
2023-07-11T09:38:06.199Z,999.00
2023-07-11T09:43:06.168Z,999.00
2023-07-11T09:48:06.119Z,999.00
2023-07-11T09:53:05.979Z,999.00
2023-07-11T09:58:05.963Z,999.00
2023-07-11T10:03:05.921Z,999.00
2023-07-11T10:08:05.852Z,999.00
2023-07-11T10:13:14.223Z,999.00
2023-07-11T10:18:06.733Z,999.00
2023-07-11T10:23:05.648Z,999.00
2023-07-11T10:28:05.627Z,999.00
2023-07-11T10:33:16.239Z,999.00
2023-07-11T10:38:06.450Z,999.00
2023-07-11T10:43:05.369Z,999.00
2023-07-11T10:48:05.520Z,999.00
2023-07-11T10:53:05.235Z,999.00
2023-07-11T10:58:05.176Z,998.00
2023-07-11T11:03:05.297Z,998.00
2023-07-11T11:08:05.093Z,998.00
2023-07-11T11:13:04.971Z,998.00
2023-07-11T11:18:05.629Z,998.00
2023-07-11T11:23:04.834Z,998.00
2023-07-11T11:28:04.799Z,998.00
2023-07-11T11:33:04.735Z,998.00
2023-07-11T11:38:04.723Z,998.00
2023-07-11T11:53:04.479Z,998.00
2023-07-11T11:58:04.439Z,998.00
2023-07-11T12:03:04.396Z,997.00
2023-07-11T12:08:04.306Z,997.00
2023-07-11T12:13:05.919Z,997.00
2023-07-11T12:18:04.223Z,997.00
2023-07-11T12:23:14.581Z,997.00
2023-07-11T12:28:05.045Z,997.00
2023-07-11T12:33:04.015Z,997.00
2023-07-11T12:38:03.947Z,997.00
2023-07-11T12:43:03.818Z,997.00
2023-07-11T12:48:03.864Z,997.00
2023-07-11T12:53:03.692Z,997.00
2023-07-11T12:58:03.671Z,997.00
2023-07-11T13:03:03.649Z,997.00
2023-07-11T13:08:05.692Z,997.00
2023-07-11T13:13:03.465Z,997.00
2023-07-11T13:18:03.428Z,997.00
2023-07-11T13:23:03.329Z,997.00
2023-07-11T13:28:03.318Z,996.00
2023-07-11T13:33:03.290Z,996.00
2023-07-11T13:38:03.284Z,996.00
2023-07-11T13:43:03.096Z,996.00
2023-07-11T13:48:03.150Z,996.00
2023-07-11T13:53:02.966Z,996.00
2023-07-11T13:58:04.271Z,996.00
2023-07-11T14:03:05.930Z,996.00
2023-07-11T14:08:02.782Z,996.00
2023-07-11T14:13:02.698Z,996.00
2023-07-11T14:18:02.795Z,996.00
2023-07-11T14:23:02.583Z,996.00
2023-07-11T14:28:02.517Z,996.00
2023-07-11T14:33:02.480Z,996.00
2023-07-11T14:38:02.396Z,996.00
2023-07-11T14:43:02.329Z,996.00
2023-07-11T14:48:02.322Z,996.00
2023-07-11T14:53:02.191Z,996.00
2023-07-11T14:58:02.331Z,996.00
2023-07-11T15:03:02.127Z,995.00
2023-07-11T15:18:01.929Z,995.00
2023-07-11T15:23:01.778Z,995.00
2023-07-11T15:28:01.743Z,995.00
2023-07-11T15:33:01.737Z,995.00
2023-07-11T15:38:01.602Z,995.00
2023-07-11T15:43:01.603Z,995.00
2023-07-11T15:48:01.773Z,995.00
2023-07-11T15:53:01.519Z,995.00
2023-07-11T15:58:01.378Z,995.00
2023-07-11T16:03:01.462Z,995.00
2023-07-11T16:08:01.240Z,995.00
2023-07-11T16:13:01.177Z,995.00
2023-07-11T16:18:01.244Z,995.00
2023-07-11T16:23:01.132Z,995.00
2023-07-11T16:28:00.963Z,995.00
2023-07-11T16:33:00.981Z,995.00
2023-07-11T16:38:01.067Z,995.00
2023-07-11T16:43:00.811Z,995.00
2023-07-11T16:48:00.787Z,995.00
2023-07-11T16:53:00.681Z,995.00
2023-07-11T16:58:00.614Z,995.00
2023-07-11T17:08:00.479Z,994.00
2023-07-11T17:13:00.393Z,994.00
2023-07-11T17:18:00.376Z,994.00
2023-07-11T17:23:00.304Z,994.00
2023-07-11T17:28:00.192Z,995.00
2023-07-11T17:33:00.169Z,995.00
2023-07-11T17:38:00.889Z,995.00
2023-07-11T17:43:00.007Z,995.00
2023-07-11T17:48:15.845Z,995.00
2023-07-11T17:53:00.856Z,995.00
2023-07-11T17:57:59.813Z,995.00
2023-07-11T18:03:00.642Z,994.00
2023-07-11T18:08:02.261Z,994.00
2023-07-11T18:13:09.003Z,994.00
2023-07-11T18:18:00.677Z,994.00
2023-07-11T18:22:59.484Z,993.00
2023-07-11T18:27:59.437Z,993.00
2023-07-11T18:32:59.390Z,993.00
2023-07-11T18:37:59.308Z,993.00
2023-07-11T18:42:59.233Z,993.00
2023-07-11T18:47:59.236Z,993.00
2023-07-11T18:52:59.069Z,993.00
2023-07-11T18:57:59.022Z,993.00
2023-07-11T19:02:59.854Z,993.00
2023-07-11T19:07:59.012Z,993.00
2023-07-11T19:12:58.795Z,993.00
2023-07-11T19:17:58.856Z,993.00
2023-07-11T19:22:58.667Z,993.00
2023-07-11T19:27:58.648Z,993.00
2023-07-11T19:32:58.687Z,993.00
2023-07-11T19:37:58.515Z,993.00
2023-07-11T19:42:58.466Z,994.00
2023-07-11T19:47:58.426Z,994.00
2023-07-11T19:52:58.328Z,993.00
2023-07-11T19:57:58.251Z,993.00
2023-07-11T20:02:58.289Z,993.00
2023-07-11T20:07:58.155Z,993.00
2023-07-11T20:12:58.036Z,994.00
2023-07-11T20:17:58.112Z,994.00
2023-07-11T20:22:58.021Z,994.00
2023-07-11T20:27:57.885Z,994.00
2023-07-11T20:32:57.826Z,994.00
2023-07-11T20:37:57.721Z,994.00
2023-07-11T20:42:57.650Z,994.00
2023-07-11T20:47:57.660Z,994.00
2023-07-11T20:52:57.512Z,994.00
2023-07-11T20:57:57.441Z,994.00
2023-07-11T21:02:57.414Z,994.00
2023-07-11T21:07:57.350Z,994.00
2023-07-11T21:12:57.251Z,994.00
2023-07-11T21:17:57.353Z,994.00
2023-07-11T21:22:57.182Z,994.00
2023-07-11T21:27:57.060Z,994.00
2023-07-11T21:32:56.967Z,994.00
2023-07-11T21:37:56.971Z,994.00
2023-07-11T21:42:56.940Z,994.00
2023-07-11T21:47:56.799Z,994.00
2023-07-11T21:52:56.673Z,994.00
2023-07-11T21:57:56.674Z,994.00
2023-07-11T22:02:56.671Z,994.00
2023-07-11T22:07:56.463Z,994.00
2023-07-11T22:12:56.453Z,994.00
2023-07-11T22:17:56.395Z,994.00
2023-07-11T22:22:56.284Z,994.00
2023-07-11T22:27:56.199Z,994.00
2023-07-11T22:32:56.239Z,994.00
2023-07-11T22:37:56.072Z,994.00
2023-07-11T22:42:55.997Z,994.00
2023-07-11T22:47:56.019Z,994.00
2023-07-11T22:52:55.915Z,994.00
2023-07-11T22:57:55.863Z,994.00
2023-07-11T23:02:55.840Z,994.00
2023-07-11T23:07:55.669Z,994.00
2023-07-11T23:12:55.599Z,994.00
2023-07-11T23:17:55.608Z,995.00
2023-07-11T23:22:55.449Z,995.00
2023-07-11T23:27:55.393Z,995.00
2023-07-11T23:32:55.369Z,995.00
2023-07-11T23:37:55.258Z,995.00
2023-07-11T23:42:55.155Z,995.00
2023-07-11T23:47:55.197Z,995.00
2023-07-11T23:52:55.048Z,995.00
2023-07-11T23:57:54.971Z,995.00
